• Join FlightAware (Why Join?)
  • Login
  • US Flag 
06:08PM EDT


 

Airport Tracker/Info


-or-


 

Live Flight TrackerFlight Track Log ✈ SWA1826 ✈ 24-Apr-2013 ✈ KPHX - KSJC

Flight Track Log - Related Links

Times and Time Zones

All times are in EDT time to prevent confusion due to time zone crossing. See the SWA1826 flight status page for this flight to view local times or setup timezone preferences in your user account.

Time Position Orientation Groundspeed Altitude Reporting Facility
EDT Latitude Longitude Course Direction KTS MPH feet Rate Location/Type
11:27AM 33.4333 -112.0000 90° East 140 161 1,900  Level Phoenix TRACON
11:28AM 33.4333 -111.9500 90° East 197 227 3,900 2,580 Climbing Phoenix TRACON
11:29AM 33.4397 -111.8894 83° East 215 247 6,600 3,480 Climbing Albuquerque Center
11:30AM 33.4144 -111.8306 117° Southeast 218 251 10,600 2,820 Climbing Albuquerque Center
11:31AM 33.3967 -111.9203 257° West 281 323 12,500 2,820 Climbing Albuquerque Center
11:32AM 33.4050 -112.0303 275° West 318 366 16,500 3,600 Climbing Albuquerque Center
11:33AM 33.4108 -112.1486 273° West 347 399 20,000 3,240 Climbing Albuquerque Center
11:34AM 33.4194 -112.2711 275° West 363 418 23,300 2,880 Climbing Albuquerque Center
11:35AM 33.4269 -112.3967 274° West 374 430 26,000 2,280 Climbing Albuquerque Center
11:36AM 33.4353 -112.5286 274° West 394 453 28,100 1,980 Climbing Albuquerque Center
11:37AM 33.4439 -112.6736 274° West 408 470 30,100 1,860 Climbing Albuquerque Center
11:38AM 33.4528 -112.8125 274° West 417 480 32,000 1,380 Climbing Albuquerque Center
11:39AM 33.4828 -112.9731 283° West 416 479 33,000 540 Climbing Albuquerque Center
11:40AM 33.5064 -113.1042 282° West 409 471 33,200 480 Climbing Albuquerque Center
11:41AM 33.5331 -113.2353 284° West 407 468 34,000 360 Climbing Albuquerque Center
11:42AM 33.5569 -113.3672 282° West 407 468 34,000  Level Albuquerque Center
11:43AM 33.5825 -113.4983 283° West 406 467 34,000  Level Albuquerque Center
11:44AM 33.6058 -113.6292 282° West 404 465 34,000  Level Albuquerque Center
11:45AM 33.6347 -113.7842 283° West 406 467 34,000  Level Albuquerque Center
11:46AM 33.6589 -113.9172 282° West 407 468 34,000  Level Albuquerque Center
11:47AM 33.6808 -114.0511 281° West 408 470 34,000  Level Albuquerque Center
11:48AM 33.6556 -114.1839 257° West 411 473 34,100 480 Climbing Albuquerque Center
11:50AM 33.6439 -114.3172 264° West 400 460 35,000 1,500 Climbing Albuquerque Center
11:51AM 33.6500 -114.4758 273° West 397 457 37,300 1,860 Climbing Albuquerque Center
11:52AM 33.6683 -114.6061 280° West 398 458 38,900 1,200 Climbing Albuquerque Center
11:53AM 33.7033 -114.7436 287° West 396 456 40,000 480 Climbing Los Angeles Center
11:54AM 33.7333 -114.8706 286° West 397 457 40,000  Level Los Angeles Center
11:55AM 33.7625 -114.9972 286° West 395 455 40,000  Level Los Angeles Center
11:56AM 33.7972 -115.1492 285° West 394 453 40,000  Level Los Angeles Center
11:57AM 33.8267 -115.2739 286° West 392 451 40,000  Level Los Angeles Center
11:58AM 33.8564 -115.4008 286° West 395 455 40,000  Level Los Angeles Center
11:59AM 33.8839 -115.5258 285° West 391 450 40,000  Level Los Angeles Center
12:00PM 33.9136 -115.6544 286° West 397 457 40,000  Level Los Angeles Center
12:01PM 33.9483 -115.8086 285° West 401 461 40,000  Level Los Angeles Center
12:02PM 33.9756 -115.9369 284° West 399 459 40,000  Level Los Angeles Center
12:03PM 34.0050 -116.0658 285° West 400 460 40,000  Level Los Angeles Center
12:04PM 34.0339 -116.1947 285° West 400 460 40,000  Level Los Angeles Center
12:05PM 34.0628 -116.3231 285° West 399 459 40,000  Level Los Angeles Center
12:06PM 34.0900 -116.4514 284° West 397 457 40,000  Level Los Angeles Center
12:07PM 34.1236 -116.6064 285° West 399 459 40,000 -840 Level Los Angeles Center
12:08PM 34.1483 -116.7172 285° West 398 458 38,300 -1,020 Descending Los Angeles Center
12:09PM 34.1822 -116.8786 284° West 413 475 38,000 -120 Descending Los Angeles Center
12:11PM 34.2164 -117.0259 286° West  Level FlightAware Approximate
12:11PM 34.2397 -117.1481 286° West 413 475 38,000  Level Los Angeles Center
12:12PM 34.2669 -117.2761 284° West 411 473 38,000  Level Los Angeles Center
12:13PM 34.2956 -117.4103 285° West 413 475 38,000 -300 Level Los Angeles Center
12:14PM 34.3283 -117.5711 284° West 413 475 37,500 -720 Descending Los Angeles Center
12:15PM 34.3581 -117.7089 285° West 424 488 36,600 -780 Descending Los Angeles Center
12:16PM 34.3881 -117.8603 284° West 431 496 36,000 -300 Descending Los Angeles Center
12:18PM 34.4178 -118.0014 284° West 431 496 36,000  Level Los Angeles Center
12:19PM 34.4797 -118.1300 300° West 441 507 36,000  Level Los Angeles Center
12:20PM 34.5569 -118.2681 304° West 448 516 36,000  Level Los Angeles Center
12:21PM 34.6269 -118.3933 304° West 450 518 36,000  Level Los Angeles Center
12:23PM 34.7647 -118.6436 304° West 448 516 36,000  Level Los Angeles Center
12:24PM 34.8342 -118.7692 304° West 449 517 36,000  Level Los Angeles Center
12:25PM 34.9056 -118.9003 304° West 446 513 36,000  Level Los Angeles Center
12:26PM 34.9744 -119.0250 304° West 445 512 36,000  Level Los Angeles Center
12:27PM 35.0556 -119.1756 303° West 445 512 36,000  Level Los Angeles Center
12:28PM 35.1242 -119.3008 304° West 446 513 36,000  Level Los Angeles Center
12:29PM 35.1936 -119.4272 304° West 448 516 36,000  Level Los Angeles Center
12:30PM 35.2614 -119.5525 304° West 446 513 36,000  Level Los Angeles Center
12:31PM 35.3292 -119.6775 304° West 445 512 36,000  Level Los Angeles Center
12:32PM 35.4089 -119.8275 303° West 445 512 36,000  Level Oakland Center
12:33PM 35.4769 -119.9528 304° West 446 513 36,000  Level Oakland Center
12:34PM 35.5431 -120.0794 303° West 446 513 36,000  Level Oakland Center
12:35PM 35.6089 -120.2047 303° West 444 511 36,000  Level Oakland Center
12:36PM 35.6761 -120.3303 303° West 446 513 36,000  Level Oakland Center
12:37PM 35.7353 -120.4611 299° West 443 510 36,000  Level Oakland Center
12:38PM 35.8128 -120.6128 302° West 443 510 36,000  Level Oakland Center
12:39PM 35.9006 -120.7192 316° Northwest 444 511 36,000 -300 Level Oakland Center
12:40PM 35.9869 -120.8275 315° West 443 510 35,500 -1,920 Descending Oakland Center
12:41PM 36.0744 -120.9342 315° West 444 511 32,100 -3,240 Descending Oakland Center
12:42PM 36.1622 -121.0447 315° West 448 516 29,000 -2,880 Descending Oakland Center
12:43PM 36.2467 -121.1533 314° West 440 506 26,200 -2,700 Descending Oakland Center
12:44PM 36.3289 -121.2539 315° West 419 482 23,500 -2,460 Descending Oakland Center
12:45PM 36.4044 -121.3536 313° West 400 460 21,300 -2,220 Descending Oakland Center
12:46PM 36.4797 -121.4411 317° Northwest 372 428 19,100 -2,580 Descending Oakland Center
12:47PM 36.5756 -121.5228 326° Northwest 349 402 16,100 -2,520 Descending Oakland Center
12:48PM 36.6506 -121.5889 325° Northwest 330 380 14,000 -2,040 Descending Oakland Center
12:49PM 36.7397 -121.5947 357° North 323 372 12,000 -1,860 Descending Oakland Center
12:50PM 36.8200 -121.5858 North 318 366 10,300 -1,320 Descending Oakland Center
12:51PM 36.9008 -121.5797 North 295 339 9,400 -960 Descending Oakland Center
12:52PM 36.9942 -121.5697 North 279 321 8,400 -840 Descending Oakland Center
12:53PM 37.0586 -121.5744 357° North 243 280 7,800 -1,080 Descending Oakland Center
12:54PM 37.0986 -121.6297 312° West 247 284 6,300 -1,620 Descending Oakland Center
12:56PM 37.1542 -121.7022 314° West 252 290 4,500 -1,200 Descending Oakland Center
12:57PM 37.2047 -121.7600 318° Northwest 251 289 3,900 -840 Descending Oakland Center
12:58PM 37.2492 -121.8069 320° Northwest 229 264 2,800 -1,020 Descending Oakland Center
12:59PM 37.2853 -121.8450 320° Northwest 195 224 1,900 -840 Descending Oakland Center
01:00PM 37.3161 -121.8811 317° Northwest 171 197 1,100 -780 Descending Oakland Center
01:01PM 37.3433 -121.9097 320° Northwest 148 170 400 -720 Descending Oakland Center
01:03PM 37.3500 -121.9167 North  Level FlightAware Approximate
01:10PM 37.3627 -121.9291 North  Level Estimated